Portada
METAR-TAF:

METAR-TAF

Aeroports :

Anchorage, Alaska, Estats Units d'Amèrica

latitud: 61-13N, longitud: 149-51W, altitud: 42 m

Observació

L'informe es va fer fa 55 minuts, a les 08:53 UTC
Vent calma
Temperatura -3°C
Humitat 74%
Pressió 998 hPa
Visibilitat: 16.1 km
Núvols disperses a una alçada de 13000 ft
Cel ennuvolat a una alçada de 20000 ft

METAR: PAMR 160853Z 00000KT 10SM SCT130 BKN200 M03/M07 A2947 RMK AO2 SLP980 T10281072 410171067 58011 $

Hora: 00:48 (09:48 UTC)


TAF: manca

Observacions i pronòstics meteorològics de més de 4000 aeroports (METAR i TAF).

Les estacions disponibles són els punts grocs i vermells al mapa.

Posi el ratolí al punt desitjat per veure el nom de l'estació.

Feu clic per veure les observacions i els pronòstics meteorològics.

Per canviar el mapa: feu clic els botons verds amb una creu de color negre per apropar; al botó verd amb un guió per allunyar la imatge; o en les fletxes verdes per a mapes adjacents.


METAR-TAF: